Hovedside
METAR-TAF:

METAR-TAF

Lufthavner :

Sakhon Nakhon, Thailand

breddegrad: 17-11-42N, lengdegrad: 104-07-08E, høyde over havet: 161 m

Gjeldene værobservasjon

Denne rapporten ble laget for 39 minutter siden, klokken 09:00 UTC
Vind 6 kt fra Nord-nordvest, skiftende mellom Vest og Nord
Temperatur 34°C
Luftfuktighet 60%
Trykk 1003 hPa
Sikt 10 km eller mer
Brutte skyer i en høyde av 2000 ft

METAR: VTUI 150900Z 33006KT 260V010 9999 BKN020 34/25 Q1003 NOSIG

Tid: 16:39 (09:39 UTC)

Varsel

Denne rapporten ble laget for 4 timer og 39 minutter siden, klokken 05:00 UTC
Varsel gyldig fra 15. klokken 06 UTC til 16. klokken 06 UTC
Vind 5 kt fra Vest-sørvest
Sikt: 9000 m
Spredte skyer i en høyde av 3000 ft

TAF: VTUI 150500Z 1506/1606 25005KT 9000 SCT030

Værobservasjoner og værvarsel for over 4000 flyplasser (METAR- og TAF-rapporter).

Tilgjengelige stasjoner er representert av de røde og gule prikkene på kartet.

Hold musepekeren over prikken for å se navnet på stasjonen.

Klikk så for å se værobservasjoner og -varsler.

For å forandre kartet kan du klikke på den grønne knappen med svart kryss for å zoome inn, på den grønne knappen med strek for å zoome ut, eller på de grønne pilene for å se tilstøtende kart.


METAR-TAF: